Tres Hombres — 9LD2206 — position and weather

sailwx.info

Track history (hours):
 
Tides and Currents Weather Stations Pressure Air Temp Water Temp Dewpoint Dewpoint Depression Visibility Wind Speed Wind Dir Waves Ship Positions

Tres Hombres

Ship's website: http://www.zeilendehandelsvaart.nl/

Last reported at 2015-Apr-19 12:00 UTC. Time now 2015-Apr-19 14:02 UTC.
Position N 46°36' W 016°48'.

Length 32 m.

Type: Sailing vessel. MMSI: 667905000.

Wind from 160 at 16 knots

Waves 2.0 meters (7 feet), 4 second period

Barometer 1015.8 mb
Air temperature 12.8 ° C
Visibility: greater than 10.8 NM
Dewpoint 11.2 ° C
Water temperature 13.1 ° C

Date/timePositionNaut miles runAvg speedWind from/ knotsBaromVisibWave heightAir tempDewpointWater temp
2015-Apr-19 12:00N 46°36' W 016°48'45 7.5 160 / 161015.810.8 2.012.811.213.1
2015-Apr-19 06:00N 46°18' W 017°48'45 7.5 140 / 221014.3 1.012.912.913.1
2015-Apr-19 00:00N 46°00' W 018°48'49 8.2 140 / 251014.6 1.013.111.213.0
2015-Apr-18 18:00N 45°42' W 019°54'46 7.6 160 / 181014.010.8 1.013.611.013.5
2015-Apr-18 12:00N 45°24' W 020°54'52 8.6 230 / 151010.510.8 1.014.413.613.6
2015-Apr-18 06:00N 44°54' W 021°54'42 7.0 130 / 151011.0 5.4 1.013.211.113.1
2015-Apr-18 00:00N 44°30' W 022°42'21 3.5 130 / 121019.5 5.4 0.514.010.514.5
2015-Apr-17 18:00N 44°18' W 023°06'13 2.1 220 / 31020.810.8 17.011.914.8
2015-Apr-17 12:00N 44°06' W 023°12'13 3.2 310 / 61023.010.8 0.515.414.114.0
2015-Apr-17 08:00N 43°58' W 023°26'109 7.8
2015-Apr-16 18:00N 42°24' W 024°42'50 8.3 320 / 201023.010.8 0.515.513.314.5
2015-Apr-16 12:00N 41°42' W 025°18'42 7.1 320 / 121022.810.8 1.014.0 8.314.5
2015-Apr-16 06:00N 41°06' W 025°48'50 8.3 330 / 201021.5 5.4 0.512.0 7.513.8
2015-Apr-16 00:00N 40°24' W 026°24'48 8.0 010 / 201022.2 5.4 2.013.8 8.514.5
2015-Apr-15 18:00N 39°42' W 026°54'44 7.4 330 / 171021.4 5.4 1.514.710.115.2
2015-Apr-15 12:00N 39°12' W 027°36'510.1 050 / 141022.310.8 0.514.812.416.0
2015-Apr-15 11:28N 39°17' W 027°38'7 7.7
2015-Apr-15 10:33N 39°15' W 027°47'7 7.1
2015-Apr-15 09:33N 39°13' W 027°56'8 7.8
2015-Apr-15 08:33N 39°11' W 028°05'8 7.9
2015-Apr-15 07:33N 39°08' W 028°15'7 7.1
2015-Apr-15 06:33N 39°03' W 028°21'7 6.7
2015-Apr-15 05:33N 38°57' W 028°26'6 6.1
2015-Apr-15 04:34N 38°51' W 028°26'7 6.8
2015-Apr-15 03:33N 38°45' W 028°22'5 4.6
2015-Apr-15 02:33N 38°41' W 028°19'3 2.7
2015-Apr-15 01:33N 38°39' W 028°16'3 2.5
2015-Apr-15 00:33N 38°38' W 028°13'610.8
2015-Apr-15 00:00N 38°36' W 028°06'4 9.3 090 / 51023.2 5.4 16.812.117.1
2015-Apr-14 23:33N 38°37' W 028°11'1 1.2
2015-Apr-14 22:31N 38°37' W 028°09'1 0.8
2015-Apr-14 21:28N 38°37' W 028°08'0 0.2
2015-Apr-14 20:33N 38°37' W 028°08'0 0.2
2015-Apr-14 19:26N 38°37' W 028°08'0 0.1
2015-Apr-14 18:33N 38°37' W 028°09'2 1.5
2015-Apr-14 17:33N 38°39' W 028°10'3 1.4
2015-Apr-14 15:31N 38°41' W 028°12'0 0.0
2015-Apr-14 14:31N 38°41' W 028°12'0 0.0
2015-Apr-14 13:31N 38°41' W 028°12'0 0.0
2015-Apr-14 12:31N 38°41' W 028°12'0 0.0
2015-Apr-14 11:31N 38°41' W 028°12'0 0.0
2015-Apr-14 10:31N 38°41' W 028°12'0 0.0
2015-Apr-14 09:31N 38°41' W 028°12'0 0.0
2015-Apr-14 08:31N 38°41' W 028°12'0 0.0
2015-Apr-14 07:31N 38°41' W 028°12'0 0.0
2015-Apr-14 06:31N 38°41' W 028°12'0 0.0
2015-Apr-14 05:31N 38°41' W 028°12'0 0.0
2015-Apr-14 04:31N 38°41' W 028°12'0 0.0
2015-Apr-14 03:28N 38°41' W 028°12'0 0.0
2015-Apr-14 02:33N 38°41' W 028°12'0 0.0
2015-Apr-14 01:27N 38°41' W 028°12'0 0.2
2015-Apr-14 00:33N 38°41' W 028°12'2 2.1
2015-Apr-13 23:33N 38°39' W 028°14'5 4.4
2015-Apr-13 22:28N 38°37' W 028°20'3 3.2
2015-Apr-13 21:34N 38°36' W 028°23'2 2.3
2015-Apr-13 20:33N 38°35' W 028°26'3 2.5
2015-Apr-13 19:33N 38°34' W 028°29'3 3.4
2015-Apr-13 18:33N 38°33' W 028°33'2 1.6
2015-Apr-13 17:33N 38°31' W 028°34'1 0.8
2015-Apr-13 16:33N 38°31' W 028°34'2 1.8
2015-Apr-13 15:31N 38°31' W 028°37'1 0.8
2015-Apr-13 14:31N 38°32' W 028°37'0 0.1
2015-Apr-13 13:31N 38°32' W 028°37'0 0.0
2015-Apr-13 12:31N 38°32' W 028°37'0 0.0
2015-Apr-13 11:31N 38°32' W 028°37'0 0.0
2015-Apr-13 10:31N 38°32' W 028°37'0 0.0
2015-Apr-13 09:31N 38°32' W 028°37'0 0.0
2015-Apr-13 08:31N 38°32' W 028°37'0 0.0
2015-Apr-13 07:31N 38°32' W 028°37'0 0.0
2015-Apr-13 06:28N 38°32' W 028°37'0 0.0
2015-Apr-13 05:31N 38°32' W 028°37'0 0.0
2015-Apr-13 04:31N 38°32' W 028°37'0 0.0
2015-Apr-13 03:31N 38°32' W 028°37'0 0.0
2015-Apr-13 02:31N 38°32' W 028°37'0 0.0
2015-Apr-13 01:22N 38°32' W 028°37'0 0.0
2015-Apr-13 00:31N 38°32' W 028°37'0 0.0
2015-Apr-12 23:31N 38°32' W 028°37'0 0.0
2015-Apr-12 22:31N 38°32' W 028°37'0 0.0
2015-Apr-12 21:31N 38°32' W 028°37'0 0.0
2015-Apr-12 20:31N 38°32' W 028°37'0 0.0
2015-Apr-12 19:31N 38°32' W 028°37'0 0.0
2015-Apr-12 18:31N 38°32' W 028°37'0 0.0
2015-Apr-12 17:31N 38°32' W 028°37'0 0.0
2015-Apr-12 16:28N 38°32' W 028°37'0 0.0
2015-Apr-12 15:31N 38°32' W 028°37'0 0.0
2015-Apr-12 14:31N 38°32' W 028°37'0 0.0
2015-Apr-12 13:28N 38°32' W 028°37'0 0.0
2015-Apr-12 12:31N 38°32' W 028°37'0 0.0
2015-Apr-12 11:31N 38°32' W 028°37'0 0.0
2015-Apr-12 10:31N 38°32' W 028°37'0 0.0
2015-Apr-12 09:31N 38°32' W 028°37'0 0.0
2015-Apr-12 08:28N 38°32' W 028°37'0 0.0
2015-Apr-12 07:28N 38°32' W 028°37'0 0.0
2015-Apr-12 06:31N 38°32' W 028°37'0 0.0
2015-Apr-12 05:31N 38°32' W 028°37'0 0.0
2015-Apr-12 04:31N 38°32' W 028°37'0 0.0
2015-Apr-12 03:31N 38°32' W 028°37'0 0.0
2015-Apr-12 02:31N 38°32' W 028°37'0 0.0
2015-Apr-12 01:31N 38°32' W 028°37'0 0.0
2015-Apr-12 00:22N 38°32' W 028°37'0 0.0
2015-Apr-11 23:31N 38°32' W 028°37'0 0.0
2015-Apr-11 22:31N 38°32' W 028°37'0 0.0
2015-Apr-11 21:31N 38°32' W 028°37'0 0.0
2015-Apr-11 20:31N 38°32' W 028°37'0 0.0
2015-Apr-11 19:31N 38°32' W 028°37'0 0.0
2015-Apr-11 18:31N 38°32' W 028°37'0 0.0
2015-Apr-11 17:31N 38°32' W 028°37'0 0.0
2015-Apr-11 16:31N 38°32' W 028°37'0 0.0
2015-Apr-11 15:31N 38°32' W 028°37'0 0.0
2015-Apr-11 14:31N 38°32' W 028°37'0 0.0
2015-Apr-11 13:31N 38°32' W 028°37'0 0.0
2015-Apr-11 12:28N 38°32' W 028°37'0 0.0
2015-Apr-11 11:31N 38°32' W 028°37'0 0.0
2015-Apr-11 10:31N 38°32' W 028°37'0 0.0
2015-Apr-11 09:31N 38°32' W 028°37'0 0.0
2015-Apr-11 08:31N 38°32' W 028°37'0 0.0
2015-Apr-11 07:31N 38°32' W 028°37'0 0.0
2015-Apr-11 06:31N 38°32' W 028°37'0 0.0
2015-Apr-11 05:31N 38°32' W 028°37'0 0.0
2015-Apr-11 04:31N 38°32' W 028°37'0 0.0
2015-Apr-11 03:31N 38°32' W 028°37'0 0.0
2015-Apr-11 02:31N 38°32' W 028°37'0 0.0
2015-Apr-11 01:31N 38°32' W 028°37'0 0.0
2015-Apr-11 00:31N 38°32' W 028°37'0 0.0
2015-Apr-10 23:31N 38°32' W 028°37'0 0.0
2015-Apr-10 22:31N 38°32' W 028°37'0 0.0
2015-Apr-10 21:31N 38°32' W 028°37'0 0.0
2015-Apr-10 20:31N 38°32' W 028°37'0 0.0
2015-Apr-10 19:31N 38°32' W 028°37'0 0.0
2015-Apr-10 18:31N 38°32' W 028°37'0 0.0
2015-Apr-10 17:31N 38°32' W 028°37'0 0.0
2015-Apr-10 16:31N 38°32' W 028°37'0 0.0
2015-Apr-10 15:31N 38°32' W 028°37'0 0.0
2015-Apr-10 14:31N 38°32' W 028°37'0 0.0
2015-Apr-10 13:31N 38°32' W 028°37'0 0.0
2015-Apr-10 12:28N 38°32' W 028°37'0 0.0
2015-Apr-10 11:28N 38°32' W 028°37'0 0.0
2015-Apr-10 10:28N 38°32' W 028°37'0 0.0
2015-Apr-10 09:31N 38°32' W 028°37'0 0.0
2015-Apr-10 02:07N 38°32' W 028°37'0 0.0
2015-Apr-10 00:10N 38°32' W 028°37'0 0.0
2015-Apr-09 23:31N 38°32' W 028°37'0 0.0
2015-Apr-09 22:31N 38°32' W 028°37'0 0.0
2015-Apr-09 21:31N 38°32' W 028°37'0 0.0
2015-Apr-09 20:31N 38°32' W 028°37'0 0.0
2015-Apr-09 19:31N 38°32' W 028°37'0 0.0
2015-Apr-09 18:31N 38°32' W 028°37'0 0.0
2015-Apr-09 17:33N 38°32' W 028°37'0 0.0
2015-Apr-09 16:33N 38°32' W 028°37'0 0.0
2015-Apr-09 15:34N 38°32' W 028°37'0 0.0
2015-Apr-09 14:31N 38°32' W 028°37'0 0.0
2015-Apr-09 13:33N 38°32' W 028°37'0 0.0
2015-Apr-09 12:33N 38°32' W 028°37'  
Track history (hours):
 
Tides and Currents Weather Stations Pressure Air Temp Water Temp Dewpoint Dewpoint Depression Visibility Wind Speed Wind Dir Waves Ship Positions

Tres Hombres

Ship's website: http://www.zeilendehandelsvaart.nl/

Last reported at 2015-Apr-19 12:00 UTC. Time now 2015-Apr-19 14:02 UTC.
Position N 46°36' W 016°48'.

Length 32 m.

Type: Sailing vessel. MMSI: 667905000.

Wind from 160 at 16 knots

Waves 2.0 meters (7 feet), 4 second period

Barometer 1015.8 mb
Air temperature 12.8 ° C
Visibility: greater than 10.8 NM
Dewpoint 11.2 ° C
Water temperature 13.1 ° C

Date/timePositionNaut miles runAvg speedWind from/ knotsBaromVisibWave heightAir tempDewpointWater temp
2015-Apr-19 12:00N 46°36' W 016°48'45 7.5 160 / 161015.810.8 2.012.811.213.1
2015-Apr-19 06:00N 46°18' W 017°48'45 7.5 140 / 221014.3 1.012.912.913.1
2015-Apr-19 00:00N 46°00' W 018°48'49 8.2 140 / 251014.6 1.013.111.213.0
2015-Apr-18 18:00N 45°42' W 019°54'46 7.6 160 / 181014.010.8 1.013.611.013.5
2015-Apr-18 12:00N 45°24' W 020°54'52 8.6 230 / 151010.510.8 1.014.413.613.6
2015-Apr-18 06:00N 44°54' W 021°54'42 7.0 130 / 151011.0 5.4 1.013.211.113.1
2015-Apr-18 00:00N 44°30' W 022°42'21 3.5 130 / 121019.5 5.4 0.514.010.514.5
2015-Apr-17 18:00N 44°18' W 023°06'13 2.1 220 / 31020.810.8 17.011.914.8
2015-Apr-17 12:00N 44°06' W 023°12'13 3.2 310 / 61023.010.8 0.515.414.114.0
2015-Apr-17 08:00N 43°58' W 023°26'109 7.8
2015-Apr-16 18:00N 42°24' W 024°42'50 8.3 320 / 201023.010.8 0.515.513.314.5
2015-Apr-16 12:00N 41°42' W 025°18'42 7.1 320 / 121022.810.8 1.014.0 8.314.5
2015-Apr-16 06:00N 41°06' W 025°48'50 8.3 330 / 201021.5 5.4 0.512.0 7.513.8
2015-Apr-16 00:00N 40°24' W 026°24'48 8.0 010 / 201022.2 5.4 2.013.8 8.514.5
2015-Apr-15 18:00N 39°42' W 026°54'44 7.4 330 / 171021.4 5.4 1.514.710.115.2
2015-Apr-15 12:00N 39°12' W 027°36'510.1 050 / 141022.310.8 0.514.812.416.0
2015-Apr-15 11:28N 39°17' W 027°38'7 7.7
2015-Apr-15 10:33N 39°15' W 027°47'7 7.1
2015-Apr-15 09:33N 39°13' W 027°56'8 7.8
2015-Apr-15 08:33N 39°11' W 028°05'8 7.9
2015-Apr-15 07:33N 39°08' W 028°15'7 7.1
2015-Apr-15 06:33N 39°03' W 028°21'7 6.7
2015-Apr-15 05:33N 38°57' W 028°26'6 6.1
2015-Apr-15 04:34N 38°51' W 028°26'7 6.8
2015-Apr-15 03:33N 38°45' W 028°22'5 4.6
2015-Apr-15 02:33N 38°41' W 028°19'3 2.7
2015-Apr-15 01:33N 38°39' W 028°16'3 2.5
2015-Apr-15 00:33N 38°38' W 028°13'610.8
2015-Apr-15 00:00N 38°36' W 028°06'4 9.3 090 / 51023.2 5.4 16.812.117.1
2015-Apr-14 23:33N 38°37' W 028°11'1 1.2
2015-Apr-14 22:31N 38°37' W 028°09'1 0.8
2015-Apr-14 21:28N 38°37' W 028°08'0 0.2
2015-Apr-14 20:33N 38°37' W 028°08'0 0.2
2015-Apr-14 19:26N 38°37' W 028°08'0 0.1
2015-Apr-14 18:33N 38°37' W 028°09'2 1.5
2015-Apr-14 17:33N 38°39' W 028°10'3 1.4
2015-Apr-14 15:31N 38°41' W 028°12'0 0.0
2015-Apr-14 14:31N 38°41' W 028°12'0 0.0
2015-Apr-14 13:31N 38°41' W 028°12'0 0.0
2015-Apr-14 12:31N 38°41' W 028°12'0 0.0
2015-Apr-14 11:31N 38°41' W 028°12'0 0.0
2015-Apr-14 10:31N 38°41' W 028°12'0 0.0
2015-Apr-14 09:31N 38°41' W 028°12'0 0.0
2015-Apr-14 08:31N 38°41' W 028°12'0 0.0
2015-Apr-14 07:31N 38°41' W 028°12'0 0.0
2015-Apr-14 06:31N 38°41' W 028°12'0 0.0
2015-Apr-14 05:31N 38°41' W 028°12'0 0.0
2015-Apr-14 04:31N 38°41' W 028°12'0 0.0
2015-Apr-14 03:28N 38°41' W 028°12'0 0.0
2015-Apr-14 02:33N 38°41' W 028°12'0 0.0
2015-Apr-14 01:27N 38°41' W 028°12'0 0.2
2015-Apr-14 00:33N 38°41' W 028°12'2 2.1
2015-Apr-13 23:33N 38°39' W 028°14'5 4.4
2015-Apr-13 22:28N 38°37' W 028°20'3 3.2
2015-Apr-13 21:34N 38°36' W 028°23'2 2.3
2015-Apr-13 20:33N 38°35' W 028°26'3 2.5
2015-Apr-13 19:33N 38°34' W 028°29'3 3.4
2015-Apr-13 18:33N 38°33' W 028°33'2 1.6
2015-Apr-13 17:33N 38°31' W 028°34'1 0.8
2015-Apr-13 16:33N 38°31' W 028°34'2 1.8
2015-Apr-13 15:31N 38°31' W 028°37'1 0.8
2015-Apr-13 14:31N 38°32' W 028°37'0 0.1
2015-Apr-13 13:31N 38°32' W 028°37'0 0.0
2015-Apr-13 12:31N 38°32' W 028°37'0 0.0
2015-Apr-13 11:31N 38°32' W 028°37'0 0.0
2015-Apr-13 10:31N 38°32' W 028°37'0 0.0
2015-Apr-13 09:31N 38°32' W 028°37'0 0.0
2015-Apr-13 08:31N 38°32' W 028°37'0 0.0
2015-Apr-13 07:31N 38°32' W 028°37'0 0.0
2015-Apr-13 06:28N 38°32' W 028°37'0 0.0
2015-Apr-13 05:31N 38°32' W 028°37'0 0.0
2015-Apr-13 04:31N 38°32' W 028°37'0 0.0
2015-Apr-13 03:31N 38°32' W 028°37'0 0.0
2015-Apr-13 02:31N 38°32' W 028°37'0 0.0
2015-Apr-13 01:22N 38°32' W 028°37'0 0.0
2015-Apr-13 00:31N 38°32' W 028°37'0 0.0
2015-Apr-12 23:31N 38°32' W 028°37'0 0.0
2015-Apr-12 22:31N 38°32' W 028°37'0 0.0
2015-Apr-12 21:31N 38°32' W 028°37'0 0.0
2015-Apr-12 20:31N 38°32' W 028°37'0 0.0
2015-Apr-12 19:31N 38°32' W 028°37'0 0.0
2015-Apr-12 18:31N 38°32' W 028°37'0 0.0
2015-Apr-12 17:31N 38°32' W 028°37'0 0.0
2015-Apr-12 16:28N 38°32' W 028°37'0 0.0
2015-Apr-12 15:31N 38°32' W 028°37'0 0.0
2015-Apr-12 14:31N 38°32' W 028°37'0 0.0
2015-Apr-12 13:28N 38°32' W 028°37'0 0.0
2015-Apr-12 12:31N 38°32' W 028°37'0 0.0
2015-Apr-12 11:31N 38°32' W 028°37'0 0.0
2015-Apr-12 10:31N 38°32' W 028°37'0 0.0
2015-Apr-12 09:31N 38°32' W 028°37'0 0.0
2015-Apr-12 08:28N 38°32' W 028°37'0 0.0
2015-Apr-12 07:28N 38°32' W 028°37'0 0.0
2015-Apr-12 06:31N 38°32' W 028°37'0 0.0
2015-Apr-12 05:31N 38°32' W 028°37'0 0.0
2015-Apr-12 04:31N 38°32' W 028°37'0 0.0
2015-Apr-12 03:31N 38°32' W 028°37'0 0.0
2015-Apr-12 02:31N 38°32' W 028°37'0 0.0
2015-Apr-12 01:31N 38°32' W 028°37'0 0.0
2015-Apr-12 00:22N 38°32' W 028°37'0 0.0
2015-Apr-11 23:31N 38°32' W 028°37'0 0.0
2015-Apr-11 22:31N 38°32' W 028°37'0 0.0
2015-Apr-11 21:31N 38°32' W 028°37'0 0.0
2015-Apr-11 20:31N 38°32' W 028°37'0 0.0
2015-Apr-11 19:31N 38°32' W 028°37'0 0.0
2015-Apr-11 18:31N 38°32' W 028°37'0 0.0
2015-Apr-11 17:31N 38°32' W 028°37'0 0.0
2015-Apr-11 16:31N 38°32' W 028°37'0 0.0
2015-Apr-11 15:31N 38°32' W 028°37'0 0.0
2015-Apr-11 14:31N 38°32' W 028°37'0 0.0
2015-Apr-11 13:31N 38°32' W 028°37'0 0.0
2015-Apr-11 12:28N 38°32' W 028°37'0 0.0
2015-Apr-11 11:31N 38°32' W 028°37'0 0.0
2015-Apr-11 10:31N 38°32' W 028°37'0 0.0
2015-Apr-11 09:31N 38°32' W 028°37'0 0.0
2015-Apr-11 08:31N 38°32' W 028°37'0 0.0
2015-Apr-11 07:31N 38°32' W 028°37'0 0.0
2015-Apr-11 06:31N 38°32' W 028°37'0 0.0
2015-Apr-11 05:31N 38°32' W 028°37'0 0.0
2015-Apr-11 04:31N 38°32' W 028°37'0 0.0
2015-Apr-11 03:31N 38°32' W 028°37'0 0.0
2015-Apr-11 02:31N 38°32' W 028°37'0 0.0
2015-Apr-11 01:31N 38°32' W 028°37'0 0.0
2015-Apr-11 00:31N 38°32' W 028°37'0 0.0
2015-Apr-10 23:31N 38°32' W 028°37'0 0.0
2015-Apr-10 22:31N 38°32' W 028°37'0 0.0
2015-Apr-10 21:31N 38°32' W 028°37'0 0.0
2015-Apr-10 20:31N 38°32' W 028°37'0 0.0
2015-Apr-10 19:31N 38°32' W 028°37'0 0.0
2015-Apr-10 18:31N 38°32' W 028°37'0 0.0
2015-Apr-10 17:31N 38°32' W 028°37'0 0.0
2015-Apr-10 16:31N 38°32' W 028°37'0 0.0
2015-Apr-10 15:31N 38°32' W 028°37'0 0.0
2015-Apr-10 14:31N 38°32' W 028°37'0 0.0
2015-Apr-10 13:31N 38°32' W 028°37'0 0.0
2015-Apr-10 12:28N 38°32' W 028°37'0 0.0
2015-Apr-10 11:28N 38°32' W 028°37'0 0.0
2015-Apr-10 10:28N 38°32' W 028°37'0 0.0
2015-Apr-10 09:31N 38°32' W 028°37'0 0.0
2015-Apr-10 02:07N 38°32' W 028°37'0 0.0
2015-Apr-10 00:10N 38°32' W 028°37'0 0.0
2015-Apr-09 23:31N 38°32' W 028°37'0 0.0
2015-Apr-09 22:31N 38°32' W 028°37'0 0.0
2015-Apr-09 21:31N 38°32' W 028°37'0 0.0
2015-Apr-09 20:31N 38°32' W 028°37'0 0.0
2015-Apr-09 19:31N 38°32' W 028°37'0 0.0
2015-Apr-09 18:31N 38°32' W 028°37'0 0.0
2015-Apr-09 17:33N 38°32' W 028°37'0 0.0
2015-Apr-09 16:33N 38°32' W 028°37'0 0.0
2015-Apr-09 15:34N 38°32' W 028°37'0 0.0
2015-Apr-09 14:31N 38°32' W 028°37'0 0.0
2015-Apr-09 13:33N 38°32' W 028°37'0 0.0
2015-Apr-09 12:33N 38°32' W 028°37'  

Dump ship's entire track history